Freedom, Maine
Current Conditions -  °F | °C
As of 9:35 AM on Saturday 22 Nov 2014 (Local Time) from KWVL Reporting Station
Overcast Overcast  
Wind Chill: 15°   Ceiling: 9000
Heat Index: 25°   Visibility: 10mi
Dew Point:   Wind: 9mph
Humidity: 50%   Direction: 190°S
Pressure: 30.19"   Gusts: NA
Location:  44.53°N, 69.3°W
Report Text: KWVL 221435Z 19008KT 10SM OVC090 M04/M13 A3019 RMK AO1
Loading
Personal Weather Stations






























Interactive Weather Map New forecast layout! Learn more

10-Day Weather Forecast

Advertisements
Track Severe Weather on mobile